createdAt,value
2023-03-31T06:23:00.982Z,25.90
2023-03-31T06:25:34.511Z,23.10
2023-03-31T06:28:08.199Z,17.60
2023-03-31T06:30:36.176Z,13.90
2023-03-31T06:33:05.794Z,12.50
2023-03-31T06:35:39.164Z,12.20
2023-03-31T06:38:07.897Z,10.30
2023-03-31T06:40:36.398Z,9.90
2023-03-31T06:43:04.541Z,9.80
2023-03-31T06:45:32.428Z,9.60
2023-03-31T06:48:00.120Z,9.10
2023-03-31T06:50:27.849Z,9.60
2023-03-31T06:52:56.060Z,10.40
2023-03-31T06:55:23.766Z,9.00
2023-03-31T06:57:51.489Z,11.00
2023-03-31T07:00:21.580Z,10.00
2023-03-31T07:02:50.437Z,11.00
2023-03-31T07:05:19.607Z,10.70
2023-03-31T07:07:47.375Z,11.70
2023-03-31T07:10:15.020Z,10.90
2023-03-31T07:12:43.165Z,12.80
2023-03-31T07:15:11.208Z,13.60
2023-03-31T07:17:41.959Z,13.00
2023-03-31T07:20:15.080Z,14.00
2023-03-31T07:22:44.840Z,16.30
2023-03-31T07:25:15.760Z,16.30
2023-03-31T07:27:44.270Z,15.70
2023-03-31T07:30:17.559Z,17.70
2023-03-31T07:32:50.493Z,18.30
2023-03-31T07:35:19.760Z,18.30
2023-03-31T07:37:53.084Z,19.90
2023-03-31T07:40:24.968Z,20.10
2023-03-31T07:42:53.490Z,20.20
2023-03-31T07:45:23.429Z,22.70
2023-03-31T07:47:51.611Z,22.40
2023-03-31T07:50:20.417Z,21.70
2023-03-31T07:52:50.557Z,18.90
2023-03-31T07:55:20.026Z,15.80
2023-03-31T07:57:48.043Z,17.10
2023-03-31T08:00:16.580Z,15.80
2023-03-31T08:02:45.298Z,15.90
2023-03-31T08:05:17.253Z,15.00
2023-03-31T08:07:47.185Z,14.80
2023-03-31T08:14:02.921Z,13.80
2023-03-31T08:16:37.692Z,15.10
2023-03-31T08:24:00.003Z,16.40
2023-03-31T08:26:28.604Z,13.10
2023-03-31T08:28:59.139Z,15.30
2023-03-31T08:31:29.429Z,15.00
2023-03-31T08:33:57.496Z,15.10
2023-03-31T08:36:29.268Z,22.00
2023-03-31T08:39:15.681Z,18.50
2023-03-31T08:46:10.818Z,16.80
2023-03-31T08:55:09.939Z,15.20
2023-03-31T08:57:58.650Z,14.90
2023-03-31T09:00:38.761Z,13.00
2023-03-31T09:03:18.439Z,11.90
2023-03-31T09:06:00.690Z,12.20
2023-03-31T09:08:35.859Z,13.60
2023-03-31T09:11:25.866Z,13.90
2023-03-31T09:14:32.739Z,12.60
2023-03-31T09:17:26.709Z,12.70
2023-03-31T09:22:30.343Z,12.80
2023-03-31T09:25:17.246Z,11.80
2023-03-31T09:27:47.581Z,11.90
2023-03-31T09:30:20.848Z,11.20
2023-03-31T09:32:53.047Z,11.30
2023-03-31T09:35:25.390Z,11.50
2023-03-31T09:37:54.039Z,12.80
2023-03-31T09:40:25.728Z,11.70
2023-03-31T09:43:15.452Z,11.90
2023-03-31T09:45:52.094Z,11.10
2023-03-31T09:48:36.065Z,10.60
2023-03-31T09:51:07.426Z,10.60
2023-03-31T09:53:43.374Z,11.30
2023-03-31T09:56:11.596Z,11.50
2023-03-31T09:58:46.052Z,14.80
2023-03-31T10:01:15.454Z,12.40
2023-03-31T10:03:46.151Z,17.00
2023-03-31T10:06:16.081Z,10.90
2023-03-31T10:08:56.068Z,26.70
2023-03-31T10:11:24.462Z,12.60
2023-03-31T10:14:13.298Z,11.40
2023-03-31T10:16:51.153Z,17.90
2023-03-31T10:19:21.742Z,13.70
2023-03-31T10:22:04.747Z,13.70
2023-03-31T10:24:40.107Z,13.60
2023-03-31T10:27:33.464Z,13.50
2023-03-31T10:30:08.430Z,9.70
2023-03-31T10:32:42.792Z,9.80
2023-03-31T10:35:33.906Z,10.40
2023-03-31T10:38:11.182Z,16.10
2023-03-31T10:40:48.879Z,10.80
2023-03-31T10:43:20.374Z,21.60
2023-03-31T10:45:50.650Z,11.70
2023-03-31T10:48:40.947Z,10.60
2023-03-31T10:51:19.818Z,12.20
2023-03-31T10:53:50.284Z,39.80
2023-03-31T10:56:54.568Z,14.90
2023-03-31T11:02:22.810Z,10.00
2023-03-31T11:05:25.288Z,9.90
2023-03-31T11:07:53.542Z,9.70
2023-03-31T11:10:58.629Z,12.80
2023-03-31T11:13:40.988Z,9.50
2023-03-31T11:16:41.055Z,9.50
2023-03-31T11:19:40.851Z,9.50
2023-03-31T11:22:14.417Z,11.60
2023-03-31T11:24:51.394Z,9.80
2023-03-31T11:27:21.843Z,10.80
2023-03-31T11:30:04.306Z,11.20
2023-03-31T11:32:47.906Z,11.50
2023-03-31T11:35:47.251Z,12.10
2023-03-31T11:38:38.128Z,22.20
2023-03-31T11:41:13.540Z,13.40
2023-03-31T11:43:46.878Z,10.80
2023-03-31T11:46:36.368Z,9.80
2023-03-31T11:49:21.319Z,8.50
2023-03-31T11:52:11.759Z,9.80
2023-03-31T11:54:55.886Z,19.00
2023-03-31T11:57:31.760Z,9.40
2023-03-31T12:00:13.602Z,9.80
2023-03-31T12:02:53.395Z,11.50
2023-03-31T12:05:24.533Z,10.20
2023-03-31T12:07:56.311Z,9.60
2023-03-31T12:10:34.357Z,10.10
2023-03-31T12:13:21.096Z,21.30
2023-03-31T12:16:06.300Z,31.10
2023-03-31T12:18:39.908Z,14.90
2023-03-31T12:21:09.730Z,29.40
2023-03-31T12:23:44.590Z,12.80
2023-03-31T12:26:28.430Z,8.60
2023-03-31T12:29:01.500Z,7.90
2023-03-31T12:31:32.950Z,8.60
2023-03-31T12:34:05.742Z,7.70
2023-03-31T12:36:49.458Z,10.30
2023-03-31T12:39:36.177Z,8.30
2023-03-31T12:42:25.811Z,7.70
2023-03-31T12:45:13.348Z,7.70
2023-03-31T12:47:41.399Z,7.10
2023-03-31T12:50:24.983Z,8.10
2023-03-31T12:55:46.807Z,7.60
2023-03-31T12:58:32.954Z,9.50
2023-03-31T13:01:10.891Z,7.40
2023-03-31T13:03:46.350Z,7.50
2023-03-31T13:06:30.368Z,7.50
2023-03-31T13:09:08.452Z,8.10
2023-03-31T13:11:36.440Z,9.00
2023-03-31T13:14:24.337Z,8.10
2023-03-31T13:16:56.345Z,8.00
2023-03-31T13:19:30.834Z,8.30
2023-03-31T13:22:01.280Z,8.20
2023-03-31T13:24:31.173Z,8.00
2023-03-31T13:27:34.774Z,8.30
2023-03-31T13:30:02.427Z,8.40
2023-03-31T13:32:30.986Z,9.00
2023-03-31T13:35:04.198Z,10.20
2023-03-31T13:38:03.800Z,9.40
2023-03-31T13:41:03.429Z,7.80
2023-03-31T13:43:37.184Z,8.20
2023-03-31T13:46:08.673Z,5.70
2023-03-31T13:48:36.666Z,5.10
2023-03-31T13:51:23.240Z,7.10
2023-03-31T13:54:09.909Z,10.90
2023-03-31T13:57:10.533Z,8.50
2023-03-31T14:00:01.072Z,5.60
2023-03-31T14:03:01.330Z,4.10
2023-03-31T14:05:33.899Z,3.20
2023-03-31T14:08:14.587Z,18.00
2023-03-31T14:10:43.636Z,18.10
2023-03-31T14:13:18.649Z,6.70
2023-03-31T14:15:57.195Z,5.50
2023-03-31T14:18:27.921Z,5.70
2023-03-31T14:21:24.464Z,5.10
2023-03-31T14:24:27.681Z,5.60
2023-03-31T14:27:14.405Z,4.90
2023-03-31T14:29:51.506Z,5.50
2023-03-31T14:32:25.382Z,5.10
2023-03-31T14:34:57.799Z,6.30
2023-03-31T14:37:28.129Z,7.70
2023-03-31T14:39:58.917Z,11.10
2023-03-31T14:42:28.798Z,6.80
2023-03-31T14:45:04.719Z,7.20
2023-03-31T14:47:32.370Z,8.20
2023-03-31T14:50:32.468Z,8.50
2023-03-31T14:53:02.245Z,20.70
2023-03-31T14:55:54.306Z,22.80
2023-03-31T14:58:30.150Z,20.10
2023-03-31T15:00:59.333Z,17.50
2023-03-31T15:03:27.472Z,15.10
2023-03-31T15:06:01.091Z,15.30
2023-03-31T15:08:31.249Z,16.40
2023-03-31T15:11:12.986Z,15.10
2023-03-31T15:13:56.575Z,12.20
2023-03-31T15:16:44.188Z,13.50
2023-03-31T15:19:33.710Z,10.60
2023-03-31T15:22:21.010Z,10.40
2023-03-31T15:24:48.657Z,10.00
2023-03-31T15:27:37.206Z,9.30
2023-03-31T15:30:09.044Z,9.10
2023-03-31T15:32:39.249Z,8.70
2023-03-31T15:35:22.164Z,9.20
2023-03-31T15:37:52.771Z,7.40
2023-03-31T15:40:39.593Z,6.40
2023-03-31T15:43:29.650Z,8.50
2023-03-31T15:45:59.537Z,11.80
2023-03-31T15:48:36.544Z,11.50
2023-03-31T15:51:19.772Z,9.20
2023-03-31T15:53:50.932Z,8.50
2023-03-31T15:56:38.172Z,8.50
2023-03-31T15:59:06.736Z,8.70
2023-03-31T16:01:43.638Z,9.30
2023-03-31T16:04:14.128Z,9.50
2023-03-31T16:06:52.569Z,13.00
2023-03-31T16:09:26.449Z,14.80
2023-03-31T16:12:01.405Z,14.00
2023-03-31T16:14:34.663Z,13.30
2023-03-31T16:17:22.386Z,12.10
2023-03-31T16:20:07.415Z,20.10
2023-03-31T16:22:41.013Z,23.60
2023-03-31T16:25:11.666Z,14.10
2023-03-31T16:27:46.795Z,13.90
2023-03-31T16:30:21.660Z,13.90
2023-03-31T16:33:07.107Z,11.30
2023-03-31T16:35:40.465Z,11.60
2023-03-31T16:38:11.473Z,9.90
2023-03-31T16:40:42.013Z,10.50
2023-03-31T16:43:13.112Z,12.30
2023-03-31T16:45:44.802Z,14.50
2023-03-31T16:51:02.359Z,17.00
2023-03-31T16:53:34.421Z,5.00
2023-03-31T16:56:10.108Z,5.00
2023-03-31T16:58:38.068Z,5.20
2023-03-31T17:01:07.317Z,7.10
2023-03-31T17:03:36.909Z,9.20
2023-03-31T17:06:11.175Z,14.20
2023-03-31T17:08:39.989Z,12.50
2023-03-31T17:11:12.264Z,12.70
2023-03-31T17:13:42.162Z,13.60
2023-03-31T17:18:58.238Z,11.10
2023-03-31T17:21:26.307Z,14.60
2023-03-31T17:23:54.655Z,7.20
2023-03-31T17:26:22.424Z,6.70
2023-03-31T17:28:50.566Z,7.80
2023-03-31T17:31:21.010Z,6.80
2023-03-31T17:33:49.210Z,6.60
2023-03-31T17:36:16.962Z,7.30
2023-03-31T17:38:44.956Z,8.70
2023-03-31T17:41:14.201Z,39.60
2023-03-31T17:43:46.851Z,20.40
2023-03-31T17:46:15.547Z,19.10
2023-03-31T17:48:43.567Z,79.20
2023-03-31T17:51:17.084Z,89.70
2023-03-31T17:56:15.535Z,17.90
2023-03-31T17:58:43.657Z,12.40
2023-03-31T18:01:12.587Z,10.60
2023-03-31T18:03:41.200Z,9.80
2023-03-31T18:06:11.817Z,10.70
2023-03-31T18:08:41.526Z,10.50
2023-03-31T18:11:10.281Z,9.60
2023-03-31T18:13:40.517Z,12.40
2023-03-31T18:16:10.812Z,11.90
2023-03-31T18:18:39.257Z,13.00
2023-03-31T18:21:10.124Z,21.90
2023-03-31T18:23:38.330Z,22.80
2023-03-31T18:26:07.843Z,22.70
2023-03-31T18:28:35.647Z,18.00
2023-03-31T18:31:08.223Z,14.10
2023-03-31T18:33:36.431Z,21.90
2023-03-31T18:36:04.990Z,30.50
2023-03-31T18:38:33.346Z,31.10
2023-03-31T18:41:01.655Z,26.40
2023-03-31T18:43:32.719Z,32.50
2023-03-31T18:46:01.886Z,49.60
2023-03-31T18:48:29.752Z,46.20
2023-03-31T18:50:57.644Z,17.90
2023-03-31T18:53:25.413Z,11.10
2023-03-31T18:55:56.548Z,9.90
2023-03-31T18:58:26.300Z,9.50
2023-03-31T19:00:54.251Z,9.90
2023-03-31T19:03:23.306Z,11.10
2023-03-31T19:05:51.171Z,11.40
2023-03-31T19:08:19.025Z,10.70
2023-03-31T19:10:46.632Z,11.70
2023-03-31T19:13:15.930Z,12.90
2023-03-31T19:15:43.730Z,13.40
2023-03-31T19:18:14.968Z,15.40
2023-03-31T19:20:43.023Z,10.20
2023-03-31T19:23:10.794Z,9.20
2023-03-31T19:25:38.408Z,8.40
2023-03-31T19:28:07.025Z,9.50
2023-03-31T19:30:35.034Z,9.80
2023-03-31T19:33:03.513Z,8.20
2023-03-31T19:35:31.813Z,10.70
2023-03-31T19:37:59.730Z,11.40
2023-03-31T19:40:27.887Z,12.00
2023-03-31T19:42:55.523Z,12.60
2023-03-31T19:45:23.138Z,12.70
2023-03-31T19:47:50.825Z,14.50
2023-03-31T19:50:18.838Z,15.50
2023-03-31T19:52:49.808Z,17.10
2023-03-31T19:55:17.578Z,16.00
2023-03-31T19:57:45.242Z,11.10
2023-03-31T20:00:13.213Z,8.70
2023-03-31T20:02:41.421Z,9.30
2023-03-31T20:05:09.665Z,12.90
2023-03-31T20:07:37.305Z,16.70
2023-03-31T20:10:05.902Z,27.00
2023-03-31T20:12:33.688Z,15.80
2023-03-31T20:15:01.264Z,16.60
2023-03-31T20:17:28.937Z,17.40
2023-03-31T20:19:57.218Z,14.60
2023-03-31T20:22:26.447Z,11.30
2023-03-31T20:24:54.057Z,10.00
2023-03-31T20:27:26.164Z,8.90
2023-03-31T20:29:53.772Z,9.40
2023-03-31T20:32:21.375Z,10.20
2023-03-31T20:34:49.090Z,10.00
2023-03-31T20:37:17.092Z,11.20
2023-03-31T20:39:45.168Z,11.60
2023-03-31T20:42:12.935Z,11.00
2023-03-31T20:44:41.011Z,12.70
2023-03-31T20:47:09.215Z,14.00
2023-03-31T20:49:36.923Z,13.80
2023-03-31T20:52:04.722Z,12.30
2023-03-31T20:54:32.471Z,11.60
2023-03-31T20:57:05.421Z,11.00
2023-03-31T20:59:33.184Z,11.20
2023-03-31T21:02:00.964Z,11.50
2023-03-31T21:04:28.565Z,12.60
2023-03-31T21:06:56.232Z,13.30
2023-03-31T21:09:23.952Z,15.50
2023-03-31T21:11:51.883Z,16.10
2023-03-31T21:14:19.499Z,15.80
2023-03-31T21:16:47.268Z,14.50
2023-03-31T21:19:15.335Z,13.80
2023-03-31T21:21:43.131Z,13.50
2023-03-31T21:24:12.348Z,13.60
2023-03-31T21:26:40.682Z,13.40
2023-03-31T21:29:08.753Z,13.80
2023-03-31T21:31:36.544Z,14.10
2023-03-31T21:34:04.676Z,13.70
2023-03-31T21:36:32.374Z,14.90
2023-03-31T21:39:00.059Z,14.20
2023-03-31T21:41:30.111Z,13.80
2023-03-31T21:44:01.695Z,16.00
2023-03-31T21:46:32.467Z,16.70
2023-03-31T21:49:01.546Z,17.00
2023-03-31T21:51:29.382Z,17.80
2023-03-31T21:53:57.253Z,16.50
2023-03-31T21:56:28.124Z,18.40
2023-03-31T21:58:56.984Z,17.80
2023-03-31T22:01:24.903Z,17.10
2023-03-31T22:03:52.638Z,20.90
2023-03-31T22:06:21.400Z,18.40
2023-03-31T22:08:49.105Z,16.60
2023-03-31T22:11:16.770Z,16.40
2023-03-31T22:13:45.322Z,14.90
2023-03-31T22:16:16.787Z,14.80
2023-03-31T22:18:45.609Z,16.00
2023-03-31T22:21:15.653Z,17.00
2023-03-31T22:23:43.309Z,16.70
2023-03-31T22:26:11.497Z,16.40
2023-03-31T22:28:39.225Z,16.20
2023-03-31T22:31:06.908Z,17.70
2023-03-31T22:33:34.543Z,17.70
2023-03-31T22:36:02.300Z,17.20
2023-03-31T22:38:29.944Z,18.20
2023-03-31T22:40:57.754Z,17.80
2023-03-31T22:43:25.533Z,18.50
2023-03-31T22:45:53.167Z,18.50
2023-03-31T22:48:20.951Z,18.90
2023-03-31T22:50:48.651Z,18.70
2023-03-31T22:53:16.728Z,17.80
2023-03-31T22:55:54.424Z,17.60
2023-03-31T22:58:22.606Z,16.70
2023-03-31T23:00:58.368Z,17.80
2023-03-31T23:03:27.508Z,17.90
2023-03-31T23:05:55.142Z,17.80
2023-03-31T23:08:23.300Z,18.30
2023-03-31T23:10:58.726Z,17.90
2023-03-31T23:13:27.609Z,18.30
2023-03-31T23:15:55.441Z,18.80
2023-03-31T23:18:23.617Z,18.70
2023-03-31T23:20:52.331Z,20.40
2023-03-31T23:23:20.014Z,19.00
2023-03-31T23:25:47.638Z,20.30
2023-03-31T23:28:16.670Z,19.80
2023-03-31T23:30:52.125Z,21.90
2023-03-31T23:33:19.773Z,20.60
2023-03-31T23:35:48.885Z,20.90
2023-03-31T23:38:17.080Z,21.80
2023-03-31T23:40:46.440Z,21.50
2023-03-31T23:43:14.180Z,32.70
2023-03-31T23:45:42.370Z,45.40
2023-03-31T23:48:10.514Z,32.40
2023-03-31T23:50:38.545Z,27.00
2023-03-31T23:53:07.313Z,26.10
2023-03-31T23:55:35.392Z,46.80
2023-03-31T23:58:05.463Z,32.50
